WIDDWMKP

Guest
Details From WIDD - Batam Hang Nadim
To WMKP - Penang Intl
Flight Number -
Tags generated
Created
Modified
Stats Distance 341 nm / 631 km
Max Altitude 10,500 ft / 3,200 m
Waypoints 5
Social Downloads 0
Likes 0
Share VATSIM

Download

Looking for another format? Having issues loading an existing format? Contact us
Advertisement - Login to hide

Notes

Basic altitude profile: - Ascent Rate: 1000ft/min - Ascent Speed: 115kts - Cruise Altitude: 10000ft - Cruise Speed: 420kts - Descent Rate: 1500ft/min - Descent Speed: 250kts

Route

WIDD DAMAL R325 ANSOM WMKP

ID Type Via Altitude Latitude Longitude Leg Dist Tot Dist Heading (true) Name
O WIDD APT - 0 ft / 0 m 1.12103˚ 104.11875˚ - 0 nm - Batam Hang Nadim
DAMAL FIX - 10,000 ft / 3,048 m 2.33194˚ 103.08667˚ 95 nm 95 nm 320° / 320° -
LATUK FIX R325 (AWY-HI) 10,500 ft / 3,200 m 2.92111˚ 102.56278˚ 47 nm 142 nm 318° / 318° -
ANSOM FIX R325 (AWY-HI) 10,000 ft / 3,048 m 4.07333˚ 101.53861˚ 92 nm 235 nm 318° / 318° -
O WMKP APT - 0 ft / 0 m 5.29714˚ 100.27687˚ 105 nm 340 nm 314° / 314° Penang Intl

Altitude Profile

Advertisement - Login to hide

Weather


0- 5 10 15 20 25 30 35+ Temperature / ° C

Clouds and Precipitation
Forecast for 2018-05-23 12:00 UTC. Updated 10 minutes ago

Ground ~20,000 ft ~40,000 ft Winds

WIDD

Details ICAO WIDD (BTH)
Name Batam Hang Nadim
Region Indonesia
Timezone Asia/Jakarta (UTC+7.0)
Stats Elevation 126 ft / 38 m (AMSL)
Location 1.121028° 104.118754°
Runways 1
Magnetic Variation 0.245° E

METAR

Not found

TAF

TAF WIDD 230500Z 2306/2406 28008KT 9000 SCT014 TEMPO 2306/2308 6000 -TSRA FEW014CB

Decode

Departure Runways

ID Width Length Bearing (true) Bearing (mag) Surface Threshold Offset Overrun Length
04 148 ft / 45 m 13,295 ft / 4,052 m 41.80° 41.55° Asphalt 0 ft / 0 m 200 ft / 61 m
22 148 ft / 45 m 13,295 ft / 4,052 m 221.80° 221.55° Asphalt 0 ft / 0 m 200 ft / 61 m

WMKP

Details ICAO WMKP (PEN)
Name Penang Intl
Region Malaysia (Peninsular Malaysia)
Timezone Asia/Kuala_Lumpur (UTC+8.0)
Stats Elevation 11 ft / 3 m (AMSL)
Location 5.297141° 100.276865°
Runways 1
Magnetic Variation 0.199° W

METAR

WMKP 231130Z 00000KT 7000 -RA FEW020 SCT024 BKN260 28/25 Q1007 NOSIG

Decode

TAF

TAF AMD WMKP 222314Z 2300/2400 VRB03KT 9000 FEW020 SCT140 BKN270 BECMG 2303/2305 20008KT BECMG 2313/2315 VRB03KT TEMPO 2314/2317 5000 TSRA FEW010 FEW017CB SCT023 BKN260

Decode

Destination Runways

ID Width Length Bearing (true) Bearing (mag) Surface Threshold Offset Overrun Length
04 150 ft / 46 m 11,042 ft / 3,366 m 42.02° 42.22° Asphalt 0 ft / 0 m 205 ft / 62 m
22 150 ft / 46 m 11,042 ft / 3,366 m 222.02° 222.22° Asphalt 0 ft / 0 m 205 ft / 62 m

Approach Navaids

Runway Type Ident Frequency Range Bearing (true) Bearing (mag) Slope Elevation
04 Localiser IPG 109.90 MHz 18 nm / 33 km 42.88° 43.08° - 12 ft / 4 m (AMSL)
04 Glidescope IPG 109.90 MHz 10 nm / 19 km 42.02° 42.22° 3.00° 11 ft / 3 m (AMSL)
04 DME IPG 109.90 MHz 18 nm / 33 km - - - 11 ft / 3 m (AMSL)

Popular Alternatives